createdAt,value
2022-09-28T00:02:08.120Z,7.59
2022-09-28T00:05:12.696Z,7.62
2022-09-28T00:08:16.849Z,7.65
2022-09-28T00:11:21.704Z,7.68
2022-09-28T00:14:25.234Z,7.65
2022-09-28T00:17:27.987Z,7.67
2022-09-28T00:20:30.749Z,7.63
2022-09-28T00:23:35.669Z,7.67
2022-09-28T00:26:38.776Z,7.69
2022-09-28T00:29:41.482Z,7.64
2022-09-28T00:32:44.340Z,7.65
2022-09-28T00:35:47.303Z,7.67
2022-09-28T00:38:52.272Z,7.63
2022-09-28T00:41:55.507Z,7.70
2022-09-28T00:44:59.152Z,7.77
2022-09-28T00:48:02.159Z,7.72
2022-09-28T00:51:09.170Z,7.71
2022-09-28T00:54:15.825Z,7.61
2022-09-28T00:57:18.814Z,7.54
2022-09-28T01:00:21.995Z,7.63
2022-09-28T01:03:25.338Z,7.70
2022-09-28T01:06:33.286Z,7.64
2022-09-28T01:09:40.656Z,7.62
2022-09-28T01:12:43.615Z,7.64
2022-09-28T01:15:54.700Z,7.61
2022-09-28T01:24:09.593Z,7.65
2022-09-28T01:27:18.820Z,7.69
2022-09-28T01:30:22.898Z,7.69
2022-09-28T01:33:30.065Z,7.74
2022-09-28T01:36:36.898Z,7.80
2022-09-28T01:39:43.631Z,7.78
2022-09-28T01:42:52.093Z,7.72
2022-09-28T01:45:59.379Z,7.73
2022-09-28T01:49:09.219Z,7.73
2022-09-28T01:52:17.368Z,7.70
2022-09-28T01:55:29.408Z,7.74
2022-09-28T01:58:39.198Z,7.69
2022-09-28T02:01:45.439Z,7.72
2022-09-28T02:04:51.980Z,7.72
2022-09-28T02:08:02.531Z,7.73
2022-09-28T02:11:10.368Z,7.74
2022-09-28T02:14:19.740Z,7.71
2022-09-28T02:17:23.970Z,7.65
2022-09-28T02:20:27.854Z,7.63
2022-09-28T02:23:35.140Z,7.59
2022-09-28T02:26:43.177Z,7.53
2022-09-28T02:29:47.419Z,7.47
2022-09-28T02:32:54.868Z,7.25
2022-09-28T02:35:59.702Z,7.26
2022-09-28T02:39:03.476Z,7.32
2022-09-28T02:42:15.183Z,7.13
2022-09-28T02:45:32.123Z,7.11
2022-09-28T02:49:19.914Z,7.02
2022-09-28T02:52:50.071Z,7.07
2022-09-28T02:56:11.239Z,7.13
2022-09-28T02:59:24.451Z,7.11
2022-09-28T03:02:34.970Z,7.09
2022-09-28T03:05:47.305Z,7.05
2022-09-28T03:08:59.684Z,6.97
2022-09-28T03:12:10.340Z,7.05
2022-09-28T03:15:21.222Z,7.01
2022-09-28T03:18:25.321Z,7.01
2022-09-28T03:21:28.121Z,6.99
2022-09-28T03:24:30.924Z,6.97
2022-09-28T03:27:33.911Z,6.94
2022-09-28T03:30:37.456Z,6.77
2022-09-28T03:33:42.242Z,6.86
2022-09-28T03:36:45.563Z,6.88
2022-09-28T03:39:48.428Z,6.92
2022-09-28T03:42:51.328Z,6.92
2022-09-28T03:45:55.161Z,6.97
2022-09-28T03:48:59.817Z,6.85
2022-09-28T03:52:06.102Z,6.95
2022-09-28T03:55:09.712Z,6.93
2022-09-28T03:58:12.739Z,6.91
2022-09-28T04:01:17.837Z,6.88
2022-09-28T04:04:24.093Z,6.93
2022-09-28T04:07:30.762Z,6.61
2022-09-28T04:10:34.487Z,6.82
2022-09-28T04:13:37.817Z,6.70
2022-09-28T04:16:43.051Z,6.82
2022-09-28T04:19:50.817Z,6.83
2022-09-28T04:23:07.121Z,6.77
2022-09-28T04:26:16.567Z,6.77
2022-09-28T04:29:18.920Z,6.71
2022-09-28T04:32:25.345Z,6.77
2022-09-28T04:35:29.408Z,6.79
2022-09-28T04:38:51.810Z,6.84
2022-09-28T04:41:55.977Z,6.87
2022-09-28T04:44:58.954Z,6.87
2022-09-28T04:48:02.289Z,6.87
2022-09-28T04:51:26.683Z,6.81
2022-09-28T04:54:29.427Z,6.84
2022-09-28T04:57:35.286Z,6.93
2022-09-28T05:00:38.030Z,6.94
2022-09-28T05:03:59.012Z,6.97
2022-09-28T05:07:24.748Z,6.98
2022-09-28T05:10:27.545Z,6.99
2022-09-28T05:13:32.144Z,6.81
2022-09-28T05:16:35.818Z,6.94
2022-09-28T05:19:57.317Z,6.95
2022-09-28T05:23:01.551Z,6.96
2022-09-28T05:26:04.772Z,6.97
2022-09-28T05:29:07.570Z,7.00
2022-09-28T05:32:35.999Z,7.02
2022-09-28T05:35:53.802Z,7.00
2022-09-28T05:38:59.447Z,6.93
2022-09-28T05:42:02.188Z,6.99
2022-09-28T05:45:06.414Z,7.01
2022-09-28T05:48:09.468Z,7.03
2022-09-28T05:51:12.195Z,7.04
2022-09-28T05:54:16.558Z,7.03
2022-09-28T05:57:22.288Z,7.02
2022-09-28T06:00:25.037Z,7.02
2022-09-28T06:03:30.294Z,7.03
2022-09-28T06:06:33.131Z,7.07
2022-09-28T06:09:37.911Z,7.09
2022-09-28T06:12:54.710Z,7.12
2022-09-28T06:15:57.460Z,7.14
2022-09-28T06:19:01.909Z,7.16
2022-09-28T06:22:17.888Z,7.20
2022-09-28T06:25:29.083Z,7.18
2022-09-28T06:28:32.092Z,7.17
2022-09-28T06:31:34.877Z,7.12
2022-09-28T06:34:37.678Z,7.20
2022-09-28T06:37:40.437Z,7.29
2022-09-28T06:40:44.745Z,7.22
2022-09-28T06:43:48.877Z,7.23
2022-09-28T06:47:09.928Z,7.20
2022-09-28T06:50:37.708Z,7.27
2022-09-28T06:54:01.499Z,7.22
2022-09-28T06:57:17.812Z,7.20
2022-09-28T07:00:20.694Z,7.17
2022-09-28T07:03:23.987Z,7.17
2022-09-28T07:06:35.783Z,7.18
2022-09-28T07:09:51.289Z,7.11
2022-09-28T07:13:02.617Z,7.17
2022-09-28T07:16:12.264Z,7.16
2022-09-28T07:19:16.595Z,7.14
2022-09-28T07:22:31.230Z,7.19
2022-09-28T07:25:45.591Z,7.18
2022-09-28T07:29:04.972Z,7.23
2022-09-28T07:32:28.637Z,7.20
2022-09-28T07:35:55.962Z,7.20
2022-09-28T07:39:05.070Z,7.23
2022-09-28T07:42:08.461Z,7.22
2022-09-28T07:45:13.188Z,7.25
2022-09-28T07:48:16.883Z,7.27
2022-09-28T07:51:38.345Z,7.31
2022-09-28T07:55:16.844Z,7.32
2022-09-28T07:58:44.659Z,7.33
2022-09-28T08:02:07.608Z,7.34
2022-09-28T08:05:11.187Z,7.37
2022-09-28T08:08:14.284Z,7.38
2022-09-28T08:11:19.414Z,7.43
2022-09-28T08:14:37.865Z,7.46
2022-09-28T08:17:49.812Z,7.50
2022-09-28T08:21:16.759Z,7.53
2022-09-28T08:24:20.646Z,7.54
2022-09-28T08:27:23.743Z,7.60
2022-09-28T08:30:27.185Z,7.58
2022-09-28T08:33:58.023Z,7.68
2022-09-28T08:37:20.761Z,7.82
2022-09-28T08:41:00.036Z,8.01
2022-09-28T08:44:23.864Z,8.16
2022-09-28T08:48:10.439Z,8.32
2022-09-28T08:51:49.031Z,8.43
2022-09-28T08:55:03.192Z,8.44
2022-09-28T08:58:14.066Z,8.42
2022-09-28T09:01:20.486Z,8.44
2022-09-28T09:04:23.905Z,8.47
2022-09-28T09:08:04.544Z,8.47
2022-09-28T09:11:18.405Z,8.52
2022-09-28T09:14:55.758Z,8.53
2022-09-28T09:18:15.586Z,8.63
2022-09-28T09:21:41.710Z,8.67
2022-09-28T09:24:51.041Z,8.72
2022-09-28T09:28:35.353Z,8.80
2022-09-28T09:31:50.887Z,8.80
2022-09-28T09:35:16.457Z,8.82
2022-09-28T09:38:50.603Z,8.69
2022-09-28T09:42:30.703Z,8.58
2022-09-28T09:46:05.958Z,8.44
2022-09-28T09:49:18.115Z,8.36
2022-09-28T09:52:25.281Z,8.25
2022-09-28T09:55:33.077Z,8.24
2022-09-28T09:59:03.026Z,8.27
2022-09-28T10:02:21.992Z,8.37
2022-09-28T10:05:33.371Z,8.45
2022-09-28T10:08:41.668Z,8.52
2022-09-28T10:11:49.956Z,8.54
2022-09-28T10:14:56.131Z,8.52
2022-09-28T10:18:06.667Z,8.48
2022-09-28T10:21:28.822Z,8.15
2022-09-28T10:24:45.462Z,7.83
2022-09-28T10:27:52.337Z,7.79
2022-09-28T10:30:56.756Z,7.81
2022-09-28T10:33:59.682Z,7.86
2022-09-28T10:37:05.578Z,7.90
2022-09-28T10:40:43.576Z,8.00
2022-09-28T10:44:06.094Z,8.09
2022-09-28T10:47:19.947Z,8.09
2022-09-28T10:50:26.219Z,8.14
2022-09-28T10:53:38.161Z,8.14
2022-09-28T10:56:44.043Z,8.19
2022-09-28T10:59:53.142Z,8.22
2022-09-28T11:03:06.333Z,8.21
2022-09-28T11:06:12.627Z,8.23
2022-09-28T11:09:29.939Z,8.25
2022-09-28T11:12:41.759Z,8.31
2022-09-28T11:15:45.437Z,8.57
2022-09-28T11:19:00.296Z,8.57
2022-09-28T11:22:03.245Z,8.57
2022-09-28T11:25:23.651Z,8.72
2022-09-28T11:28:32.865Z,9.01
2022-09-28T11:31:41.786Z,9.15
2022-09-28T11:35:00.387Z,9.02
2022-09-28T11:38:24.278Z,8.89
2022-09-28T11:41:57.862Z,8.90
2022-09-28T11:45:13.557Z,8.88
2022-09-28T11:48:20.181Z,8.93
2022-09-28T11:51:29.250Z,8.99
2022-09-28T11:54:39.701Z,9.05
2022-09-28T11:57:47.679Z,9.07
2022-09-28T12:00:55.216Z,9.19
2022-09-28T12:04:09.571Z,9.18
2022-09-28T12:07:18.979Z,9.22
2022-09-28T12:10:33.558Z,9.16
2022-09-28T12:13:39.984Z,9.09
2022-09-28T12:17:07.345Z,8.96
2022-09-28T12:20:20.712Z,8.78
2022-09-28T12:23:32.346Z,8.63
2022-09-28T12:26:43.210Z,8.51
2022-09-28T12:29:54.932Z,8.58
2022-09-28T12:33:03.099Z,8.52
2022-09-28T12:36:26.200Z,8.45
2022-09-28T12:39:57.533Z,8.55
2022-09-28T12:43:26.343Z,8.76
2022-09-28T12:46:43.232Z,8.93
2022-09-28T12:53:48.792Z,9.31
2022-09-28T12:57:04.433Z,9.39
2022-09-28T13:00:11.901Z,9.42
2022-09-28T13:03:31.787Z,9.35
2022-09-28T13:06:46.840Z,9.30
2022-09-28T13:10:02.426Z,9.21
2022-09-28T13:13:31.390Z,9.26
2022-09-28T13:16:41.627Z,9.28
2022-09-28T13:19:52.589Z,9.23
2022-09-28T13:23:06.351Z,9.32
2022-09-28T13:26:16.017Z,9.42
2022-09-28T13:29:22.198Z,9.56
2022-09-28T13:32:26.947Z,9.62
2022-09-28T13:35:30.327Z,9.58
2022-09-28T13:38:51.960Z,9.52
2022-09-28T13:41:56.007Z,9.59
2022-09-28T13:45:24.280Z,9.70
2022-09-28T13:48:42.548Z,9.89
2022-09-28T13:51:58.250Z,9.77
2022-09-28T13:55:37.170Z,9.64
2022-09-28T13:58:45.297Z,9.52
2022-09-28T14:01:55.706Z,9.51
2022-09-28T14:05:01.149Z,9.54
2022-09-28T14:08:29.408Z,9.67
2022-09-28T14:11:56.741Z,9.85
2022-09-28T14:15:00.375Z,9.79
2022-09-28T14:18:11.322Z,9.88
2022-09-28T14:21:32.174Z,9.84
2022-09-28T14:24:56.609Z,9.77
2022-09-28T14:28:13.721Z,9.75
2022-09-28T14:31:25.417Z,9.73
2022-09-28T14:34:36.006Z,9.56
2022-09-28T14:38:00.298Z,9.33
2022-09-28T14:41:13.903Z,9.43
2022-09-28T14:44:17.218Z,9.56
2022-09-28T14:47:36.019Z,9.54
2022-09-28T14:50:40.535Z,9.57
2022-09-28T14:53:43.801Z,9.56
2022-09-28T14:56:59.570Z,9.45
2022-09-28T15:00:10.516Z,9.49
2022-09-28T15:03:15.083Z,9.43
2022-09-28T15:06:19.754Z,9.45
2022-09-28T15:09:29.154Z,9.61
2022-09-28T15:12:32.746Z,9.61
2022-09-28T15:15:38.632Z,9.47
2022-09-28T15:18:58.890Z,9.42
2022-09-28T15:22:03.187Z,9.40
2022-09-28T15:25:15.384Z,9.37
2022-09-28T15:28:22.187Z,9.31
2022-09-28T15:31:27.279Z,9.33
2022-09-28T15:34:52.856Z,9.36
2022-09-28T15:37:57.158Z,9.42
2022-09-28T15:41:02.860Z,9.42
2022-09-28T15:44:29.374Z,9.44
2022-09-28T15:47:33.917Z,9.34
2022-09-28T15:50:36.812Z,9.34
2022-09-28T15:53:51.259Z,9.34
2022-09-28T15:56:57.768Z,9.29
2022-09-28T16:00:01.688Z,9.30
2022-09-28T16:03:23.780Z,9.32
2022-09-28T16:06:26.512Z,9.35
2022-09-28T16:09:40.318Z,9.34
2022-09-28T16:12:48.701Z,9.35
2022-09-28T16:15:58.020Z,9.29
2022-09-28T16:19:02.147Z,9.23
2022-09-28T16:22:08.500Z,9.22
2022-09-28T16:25:19.277Z,9.18
2022-09-28T16:28:51.681Z,9.18
2022-09-28T16:31:56.451Z,9.18
2022-09-28T16:35:18.617Z,9.11
2022-09-28T16:38:21.818Z,9.09
2022-09-28T16:41:28.941Z,9.13
2022-09-28T16:44:34.487Z,9.08
2022-09-28T16:47:37.554Z,9.14
2022-09-28T16:50:40.523Z,9.20
2022-09-28T16:54:00.782Z,9.13
2022-09-28T16:57:06.547Z,9.20
2022-09-28T17:00:16.119Z,9.22
2022-09-28T17:03:19.537Z,9.12
2022-09-28T17:06:25.324Z,9.11
2022-09-28T17:09:29.424Z,9.05
2022-09-28T17:12:33.748Z,9.00
2022-09-28T17:15:36.814Z,8.95
2022-09-28T17:18:40.371Z,8.97
2022-09-28T17:21:43.065Z,8.87
2022-09-28T17:24:46.950Z,8.71
2022-09-28T17:27:52.403Z,8.75
2022-09-28T17:30:55.583Z,8.73
2022-09-28T17:33:58.333Z,8.69
2022-09-28T17:37:01.030Z,8.51
2022-09-28T17:40:04.239Z,8.64
2022-09-28T17:43:08.349Z,8.64
2022-09-28T17:46:25.479Z,8.54
2022-09-28T17:49:28.512Z,8.47
2022-09-28T17:52:32.241Z,8.36
2022-09-28T17:55:36.755Z,8.48
2022-09-28T17:58:40.883Z,8.42
2022-09-28T18:01:43.931Z,8.55
2022-09-28T18:04:52.167Z,8.54
2022-09-28T18:07:55.418Z,8.66
2022-09-28T18:10:58.494Z,8.78
2022-09-28T18:14:03.713Z,8.76
2022-09-28T18:17:09.025Z,8.81
2022-09-28T18:20:13.614Z,8.85
2022-09-28T18:23:16.751Z,8.86
2022-09-28T18:26:20.117Z,8.81
2022-09-28T18:29:24.671Z,8.84
2022-09-28T18:32:27.562Z,8.78
2022-09-28T18:35:30.567Z,8.69
2022-09-28T18:38:35.659Z,8.65
2022-09-28T18:46:07.191Z,8.56
2022-09-28T18:49:10.309Z,8.34
2022-09-28T18:52:13.222Z,8.41
2022-09-28T18:55:16.019Z,8.37
2022-09-28T18:58:18.927Z,8.29
2022-09-28T19:01:30.074Z,8.47
2022-09-28T19:04:33.659Z,8.44
2022-09-28T19:07:36.613Z,8.44
2022-09-28T19:10:39.443Z,8.19
2022-09-28T19:13:43.454Z,8.23
2022-09-28T19:16:47.987Z,8.09
2022-09-28T19:19:51.691Z,8.03
2022-09-28T19:22:55.221Z,8.07
2022-09-28T19:25:58.082Z,8.04
2022-09-28T19:29:02.775Z,8.07
2022-09-28T19:32:07.251Z,8.06
2022-09-28T19:35:10.349Z,8.08
2022-09-28T19:38:13.219Z,8.20
2022-09-28T19:41:39.597Z,8.18
2022-09-28T19:44:46.477Z,8.24
2022-09-28T19:47:54.181Z,8.10
2022-09-28T19:51:00.817Z,8.11
2022-09-28T19:54:04.722Z,8.15
2022-09-28T19:57:08.952Z,8.08
2022-09-28T20:00:12.664Z,8.13
2022-09-28T20:03:16.904Z,8.19
2022-09-28T20:06:19.780Z,8.18
2022-09-28T20:09:22.785Z,7.94
2022-09-28T20:12:25.713Z,8.00
2022-09-28T20:15:28.972Z,8.13
2022-09-28T20:18:35.896Z,8.03
2022-09-28T20:21:38.850Z,8.04
2022-09-28T20:24:41.741Z,7.91
2022-09-28T20:27:44.946Z,7.88
2022-09-28T20:30:48.182Z,7.97
2022-09-28T20:33:52.874Z,7.88
2022-09-28T20:36:55.931Z,7.76
2022-09-28T20:40:00.933Z,7.55
2022-09-28T20:43:06.048Z,7.28
2022-09-28T20:46:11.314Z,7.37
2022-09-28T20:49:16.089Z,7.39
2022-09-28T20:52:19.423Z,7.38
2022-09-28T20:55:22.505Z,7.33
2022-09-28T20:58:25.498Z,7.30
2022-09-28T21:01:30.297Z,7.28
2022-09-28T21:04:34.611Z,7.27
2022-09-28T21:07:37.446Z,7.18
2022-09-28T21:10:44.493Z,7.20
2022-09-28T21:13:48.074Z,7.31
2022-09-28T21:16:50.995Z,7.35
2022-09-28T21:19:55.301Z,7.19
2022-09-28T21:22:58.218Z,7.24
2022-09-28T21:26:06.518Z,7.32
2022-09-28T21:29:13.843Z,7.32
2022-09-28T21:32:17.064Z,7.32
2022-09-28T21:35:21.429Z,7.25
2022-09-28T21:38:24.304Z,7.36
2022-09-28T21:41:28.790Z,7.37
2022-09-28T21:44:31.653Z,7.29
2022-09-28T21:47:34.564Z,7.14
2022-09-28T21:50:38.895Z,7.18
2022-09-28T21:53:42.645Z,7.03
2022-09-28T21:56:45.483Z,7.15
2022-09-28T21:59:48.432Z,7.06
2022-09-28T22:02:51.915Z,7.09
2022-09-28T22:05:56.367Z,7.01
2022-09-28T22:08:59.352Z,7.08
2022-09-28T22:12:02.738Z,7.00
2022-09-28T22:15:07.299Z,6.98
2022-09-28T22:18:10.165Z,7.02
2022-09-28T22:21:16.373Z,6.84
2022-09-28T22:24:19.351Z,6.69
2022-09-28T22:27:22.336Z,6.72
2022-09-28T22:30:25.212Z,6.61
2022-09-28T22:33:28.521Z,6.69
2022-09-28T22:36:33.363Z,6.65
2022-09-28T22:39:37.844Z,6.56
2022-09-28T22:42:40.896Z,6.36
2022-09-28T22:45:44.219Z,6.22
2022-09-28T22:48:48.284Z,6.43
2022-09-28T22:51:52.556Z,6.49
2022-09-28T22:54:55.378Z,6.41
2022-09-28T22:57:58.247Z,6.31
2022-09-28T23:01:06.942Z,6.36
2022-09-28T23:04:10.344Z,6.24
2022-09-28T23:07:14.685Z,6.22
2022-09-28T23:10:17.805Z,6.16
2022-09-28T23:13:20.881Z,6.16
2022-09-28T23:16:25.698Z,6.18
2022-09-28T23:19:28.656Z,6.20
2022-09-28T23:22:33.263Z,6.05
2022-09-28T23:25:36.172Z,6.13
2022-09-28T23:28:39.208Z,6.03
2022-09-28T23:31:42.610Z,5.98
2022-09-28T23:34:45.595Z,6.03
2022-09-28T23:37:52.332Z,5.90
2022-09-28T23:40:55.458Z,6.07
2022-09-28T23:43:58.486Z,6.00
2022-09-28T23:47:01.371Z,6.09
2022-09-28T23:50:04.538Z,6.13
2022-09-28T23:53:08.865Z,6.13
2022-09-28T23:56:12.014Z,6.02
2022-09-28T23:59:15.014Z,5.96
